Sarfaq Ittuk — OWDD — position and weather

sailwx.info

Track history (hours):
 
Tides and Currents Weather Stations Pressure Air Temp Water Temp Dewpoint Dewpoint Depression Visibility Wind Speed Wind Dir Waves Ship Positions

Sarfaq Ittuk

Last reported at 2019-Aug-24 08:00 UTC. Time now 2019-Aug-24 08:04 UTC.
Position N 65°18' W 052°51'.

Length 73 m; beam 11.1 m; draft 3.7 m.

Type: Passenger vessel. MMSI: 331000499.

Date/timePositionNaut miles runAvg speedWind from/ knotsBaromVisibWave heightAir tempDewpointWater temp
2019-Aug-24 08:00N 65°18' W 052°51'510.1
2019-Aug-24 07:30N 65°13' W 052°51'510.6
2019-Aug-24 07:00N 65°07' W 052°51'510.7
2019-Aug-24 06:31N 65°02' W 052°48'510.4
2019-Aug-24 06:00N 64°57' W 052°45'510.4
2019-Aug-24 05:30N 64°52' W 052°43'510.3
2019-Aug-24 05:00N 64°47' W 052°41'510.2
2019-Aug-24 04:30N 64°42' W 052°39'5 9.6
2019-Aug-24 04:00N 64°37' W 052°36'510.0
2019-Aug-24 03:30N 64°32' W 052°34'510.1
2019-Aug-24 03:00N 64°27' W 052°32'510.3
2019-Aug-24 02:30N 64°22' W 052°29'510.5
2019-Aug-24 02:00N 64°17' W 052°26'510.4
2019-Aug-24 01:30N 64°12' W 052°23'510.2
2019-Aug-24 01:00N 64°08' W 052°17'510.8
2019-Aug-24 00:30N 64°04' W 052°10'5 9.2
2019-Aug-24 00:00N 64°06' W 052°00'510.2
2019-Aug-23 23:30N 64°08' W 051°50'4 7.2
2019-Aug-23 23:00N 64°10' W 051°43'0 0.0
2019-Aug-23 22:30N 64°10' W 051°43'0 0.0
2019-Aug-23 22:00N 64°10' W 051°43'0 0.0
2019-Aug-23 21:30N 64°10' W 051°43'0 0.0
2019-Aug-23 21:00N 64°10' W 051°43'0 0.0
2019-Aug-23 20:30N 64°10' W 051°43'0 0.0
2019-Aug-23 20:00N 64°10' W 051°43'0 0.0
2019-Aug-23 19:30N 64°10' W 051°43'0 0.0
2019-Aug-23 19:00N 64°10' W 051°43'0 0.0
2019-Aug-23 18:30N 64°10' W 051°43'0 0.0
2019-Aug-23 18:00N 64°10' W 051°43'0 0.0
2019-Aug-23 17:30N 64°10' W 051°43'0 0.0
2019-Aug-23 17:00N 64°10' W 051°43'0 0.0
2019-Aug-23 16:30N 64°10' W 051°43'0 0.0
2019-Aug-23 16:00N 64°10' W 051°43'0 0.0
2019-Aug-23 15:30N 64°10' W 051°43'0 0.0
2019-Aug-23 15:00N 64°10' W 051°43'0 0.0
2019-Aug-23 14:30N 64°10' W 051°43'0 0.0
2019-Aug-23 14:00N 64°10' W 051°43'0 0.0
2019-Aug-23 13:29N 64°10' W 051°43'0 0.0
2019-Aug-23 13:00N 64°10' W 051°43'0 0.0
2019-Aug-23 12:30N 64°10' W 051°43'0 0.0
2019-Aug-23 12:00N 64°10' W 051°43'0 0.1
2019-Aug-23 11:30N 64°10' W 051°43'0 0.0
2019-Aug-23 11:00N 64°10' W 051°43'0 0.0
2019-Aug-23 10:30N 64°10' W 051°43'0 0.0
2019-Aug-23 10:00N 64°10' W 051°43'0 0.0
2019-Aug-23 09:30N 64°10' W 051°43'2 4.6
2019-Aug-23 09:00N 64°08' W 051°41'510.6
2019-Aug-23 08:30N 64°03' W 051°38'5 9.7
2019-Aug-23 07:59N 63°58' W 051°38'510.0
2019-Aug-23 07:30N 63°54' W 051°34'510.7
2019-Aug-23 07:01N 63°48' W 051°35'510.2
2019-Aug-23 06:30N 63°43' W 051°37'  
2019-Aug-20 15:09N 63°26' W 051°31'311.6
2019-Aug-20 14:55N 63°28' W 051°33'1511.2
2019-Aug-20 13:32N 63°44' W 051°36'010.6
2019-Aug-20 13:30N 63°44' W 051°36'611.7
2019-Aug-20 12:59N 63°50' W 051°34'611.1
2019-Aug-20 12:28N 63°56' W 051°35'510.9
2019-Aug-20 12:00N 64°00' W 051°41'510.6
2019-Aug-20 11:30N 64°06' W 051°39'510.1
2019-Aug-20 11:01N 64°10' W 051°43'0 0.0
2019-Aug-20 10:30N 64°10' W 051°43'0 0.0
2019-Aug-20 10:00N 64°10' W 051°43'0 0.0
2019-Aug-20 09:30N 64°10' W 051°43'0 0.0
2019-Aug-20 09:00N 64°10' W 051°43'3 5.8
2019-Aug-20 08:31N 64°08' W 051°48'510.7
2019-Aug-20 08:00N 64°06' W 051°59'510.3
2019-Aug-20 07:30N 64°04' W 052°10'510.5
2019-Aug-20 07:00N 64°08' W 052°18'510.3
2019-Aug-20 06:31N 64°12' W 052°23'510.6
2019-Aug-20 06:00N 64°18' W 052°26'611.3
2019-Aug-20 05:30N 64°23' W 052°30'611.4
2019-Aug-20 05:00N 64°29' W 052°33'611.4
2019-Aug-20 04:31N 64°34' W 052°35'611.7
2019-Aug-20 04:00N 64°40' W 052°37'611.9
2019-Aug-20 03:31N 64°46' W 052°40'611.7
2019-Aug-20 03:00N 64°51' W 052°43'611.4
2019-Aug-20 02:31N 64°57' W 052°45'611.5
2019-Aug-20 02:00N 65°03' W 052°48'611.1
2019-Aug-20 01:30N 65°08' W 052°50'611.2
2019-Aug-20 01:00N 65°14' W 052°51'612.2
2019-Aug-20 00:30N 65°20' W 052°51'5 7.5
2019-Aug-19 23:51N 65°25' W 052°54'0 0.0
2019-Aug-19 23:30N 65°25' W 052°54'9 8.4
2019-Aug-19 22:30N 65°33' W 052°51'14 9.4
2019-Aug-19 20:59N 65°40' W 053°20'611.8
2019-Aug-19 20:30N 65°46' W 053°18'10 6.5
2019-Aug-19 18:58N 65°54' W 053°34'  
2019-Aug-17 14:26N 65°51' W 053°29'5 4.0
2019-Aug-17 13:09N 65°49' W 053°19'36 6.6
2019-Aug-17 07:41N 65°14' W 052°51'710.0
2019-Aug-17 06:57N 65°07' W 052°50'510.5
2019-Aug-17 06:30N 65°02' W 052°47'510.0
2019-Aug-17 06:00N 64°57' W 052°45'510.2
2019-Aug-17 05:30N 64°52' W 052°43'510.8
2019-Aug-17 05:00N 64°47' W 052°41'510.5
2019-Aug-17 04:30N 64°42' W 052°39'5 9.9
2019-Aug-17 04:00N 64°37' W 052°36'5 9.7
2019-Aug-17 03:30N 64°32' W 052°34'5 9.7
2019-Aug-17 03:00N 64°28' W 052°32'510.0
2019-Aug-17 02:31N 64°23' W 052°30'5 9.8
2019-Aug-17 02:00N 64°18' W 052°27'510.1
2019-Aug-17 01:30N 64°13' W 052°24'510.2
2019-Aug-17 01:00N 64°08' W 052°19'510.3
2019-Aug-17 00:30N 64°04' W 052°11'4 8.4
2019-Aug-17 00:00N 64°05' W 052°02'510.8
2019-Aug-16 23:30N 64°08' W 051°51'4 8.4
2019-Aug-16 23:01N 64°10' W 051°43'0 0.0
2019-Aug-16 22:31N 64°10' W 051°43'0 0.0
2019-Aug-16 22:00N 64°10' W 051°43'0 0.0
2019-Aug-16 21:30N 64°10' W 051°43'0 0.0
2019-Aug-16 21:00N 64°10' W 051°43'0 0.0
2019-Aug-16 20:30N 64°10' W 051°43'0 0.0
2019-Aug-16 20:00N 64°10' W 051°43'0 0.0
2019-Aug-16 19:30N 64°10' W 051°43'0 0.0
2019-Aug-16 19:00N 64°10' W 051°43'0 0.0
2019-Aug-16 18:30N 64°10' W 051°43'0 0.0
2019-Aug-16 18:00N 64°10' W 051°43'0 0.0
2019-Aug-16 17:30N 64°10' W 051°43'0 0.0
2019-Aug-16 17:00N 64°10' W 051°43'0 0.0
2019-Aug-16 16:30N 64°10' W 051°43'0 0.0
2019-Aug-16 16:00N 64°10' W 051°43'0 0.0
2019-Aug-16 15:30N 64°10' W 051°43'0 0.0
2019-Aug-16 15:00N 64°10' W 051°43'0 0.0
2019-Aug-16 14:30N 64°10' W 051°43'0 0.0
2019-Aug-16 14:00N 64°10' W 051°43'0 0.0
2019-Aug-16 13:30N 64°10' W 051°43'0 0.0
2019-Aug-16 13:00N 64°10' W 051°43'0 0.0
2019-Aug-16 12:30N 64°10' W 051°43'0 0.0
2019-Aug-16 12:00N 64°10' W 051°43'0 0.0
2019-Aug-16 11:30N 64°10' W 051°43'0 0.0
2019-Aug-16 11:00N 64°10' W 051°43'0 0.0
2019-Aug-16 10:30N 64°10' W 051°43'0 0.0
2019-Aug-16 10:00N 64°10' W 051°43'0 0.0
2019-Aug-16 09:30N 64°10' W 051°43'4 7.1
2019-Aug-16 09:00N 64°07' W 051°39'5 9.3
2019-Aug-16 08:30N 64°03' W 051°38'5 8.9
2019-Aug-16 07:59N 63°58' W 051°38'5 9.9
2019-Aug-16 07:30N 63°54' W 051°34'510.3
2019-Aug-16 07:00N 63°48' W 051°35'5 9.9
2019-Aug-16 06:30N 63°44' W 051°37'  
Track history (hours):
 
Tides and Currents Weather Stations Pressure Air Temp Water Temp Dewpoint Dewpoint Depression Visibility Wind Speed Wind Dir Waves Ship Positions

Sarfaq Ittuk

Last reported at 2019-Aug-24 08:00 UTC. Time now 2019-Aug-24 08:04 UTC.
Position N 65°18' W 052°51'.

Length 73 m; beam 11.1 m; draft 3.7 m.

Type: Passenger vessel. MMSI: 331000499.

Date/timePositionNaut miles runAvg speedWind from/ knotsBaromVisibWave heightAir tempDewpointWater temp
2019-Aug-24 08:00N 65°18' W 052°51'510.1
2019-Aug-24 07:30N 65°13' W 052°51'510.6
2019-Aug-24 07:00N 65°07' W 052°51'510.7
2019-Aug-24 06:31N 65°02' W 052°48'510.4
2019-Aug-24 06:00N 64°57' W 052°45'510.4
2019-Aug-24 05:30N 64°52' W 052°43'510.3
2019-Aug-24 05:00N 64°47' W 052°41'510.2
2019-Aug-24 04:30N 64°42' W 052°39'5 9.6
2019-Aug-24 04:00N 64°37' W 052°36'510.0
2019-Aug-24 03:30N 64°32' W 052°34'510.1
2019-Aug-24 03:00N 64°27' W 052°32'510.3
2019-Aug-24 02:30N 64°22' W 052°29'510.5
2019-Aug-24 02:00N 64°17' W 052°26'510.4
2019-Aug-24 01:30N 64°12' W 052°23'510.2
2019-Aug-24 01:00N 64°08' W 052°17'510.8
2019-Aug-24 00:30N 64°04' W 052°10'5 9.2
2019-Aug-24 00:00N 64°06' W 052°00'510.2
2019-Aug-23 23:30N 64°08' W 051°50'4 7.2
2019-Aug-23 23:00N 64°10' W 051°43'0 0.0
2019-Aug-23 22:30N 64°10' W 051°43'0 0.0
2019-Aug-23 22:00N 64°10' W 051°43'0 0.0
2019-Aug-23 21:30N 64°10' W 051°43'0 0.0
2019-Aug-23 21:00N 64°10' W 051°43'0 0.0
2019-Aug-23 20:30N 64°10' W 051°43'0 0.0
2019-Aug-23 20:00N 64°10' W 051°43'0 0.0
2019-Aug-23 19:30N 64°10' W 051°43'0 0.0
2019-Aug-23 19:00N 64°10' W 051°43'0 0.0
2019-Aug-23 18:30N 64°10' W 051°43'0 0.0
2019-Aug-23 18:00N 64°10' W 051°43'0 0.0
2019-Aug-23 17:30N 64°10' W 051°43'0 0.0
2019-Aug-23 17:00N 64°10' W 051°43'0 0.0
2019-Aug-23 16:30N 64°10' W 051°43'0 0.0
2019-Aug-23 16:00N 64°10' W 051°43'0 0.0
2019-Aug-23 15:30N 64°10' W 051°43'0 0.0
2019-Aug-23 15:00N 64°10' W 051°43'0 0.0
2019-Aug-23 14:30N 64°10' W 051°43'0 0.0
2019-Aug-23 14:00N 64°10' W 051°43'0 0.0
2019-Aug-23 13:29N 64°10' W 051°43'0 0.0
2019-Aug-23 13:00N 64°10' W 051°43'0 0.0
2019-Aug-23 12:30N 64°10' W 051°43'0 0.0
2019-Aug-23 12:00N 64°10' W 051°43'0 0.1
2019-Aug-23 11:30N 64°10' W 051°43'0 0.0
2019-Aug-23 11:00N 64°10' W 051°43'0 0.0
2019-Aug-23 10:30N 64°10' W 051°43'0 0.0
2019-Aug-23 10:00N 64°10' W 051°43'0 0.0
2019-Aug-23 09:30N 64°10' W 051°43'2 4.6
2019-Aug-23 09:00N 64°08' W 051°41'510.6
2019-Aug-23 08:30N 64°03' W 051°38'5 9.7
2019-Aug-23 07:59N 63°58' W 051°38'510.0
2019-Aug-23 07:30N 63°54' W 051°34'510.7
2019-Aug-23 07:01N 63°48' W 051°35'510.2
2019-Aug-23 06:30N 63°43' W 051°37'  
2019-Aug-20 15:09N 63°26' W 051°31'311.6
2019-Aug-20 14:55N 63°28' W 051°33'1511.2
2019-Aug-20 13:32N 63°44' W 051°36'010.6
2019-Aug-20 13:30N 63°44' W 051°36'611.7
2019-Aug-20 12:59N 63°50' W 051°34'611.1
2019-Aug-20 12:28N 63°56' W 051°35'510.9
2019-Aug-20 12:00N 64°00' W 051°41'510.6
2019-Aug-20 11:30N 64°06' W 051°39'510.1
2019-Aug-20 11:01N 64°10' W 051°43'0 0.0
2019-Aug-20 10:30N 64°10' W 051°43'0 0.0
2019-Aug-20 10:00N 64°10' W 051°43'0 0.0
2019-Aug-20 09:30N 64°10' W 051°43'0 0.0
2019-Aug-20 09:00N 64°10' W 051°43'3 5.8
2019-Aug-20 08:31N 64°08' W 051°48'510.7
2019-Aug-20 08:00N 64°06' W 051°59'510.3
2019-Aug-20 07:30N 64°04' W 052°10'510.5
2019-Aug-20 07:00N 64°08' W 052°18'510.3
2019-Aug-20 06:31N 64°12' W 052°23'510.6
2019-Aug-20 06:00N 64°18' W 052°26'611.3
2019-Aug-20 05:30N 64°23' W 052°30'611.4
2019-Aug-20 05:00N 64°29' W 052°33'611.4
2019-Aug-20 04:31N 64°34' W 052°35'611.7
2019-Aug-20 04:00N 64°40' W 052°37'611.9
2019-Aug-20 03:31N 64°46' W 052°40'611.7
2019-Aug-20 03:00N 64°51' W 052°43'611.4
2019-Aug-20 02:31N 64°57' W 052°45'611.5
2019-Aug-20 02:00N 65°03' W 052°48'611.1
2019-Aug-20 01:30N 65°08' W 052°50'611.2
2019-Aug-20 01:00N 65°14' W 052°51'612.2
2019-Aug-20 00:30N 65°20' W 052°51'5 7.5
2019-Aug-19 23:51N 65°25' W 052°54'0 0.0
2019-Aug-19 23:30N 65°25' W 052°54'9 8.4
2019-Aug-19 22:30N 65°33' W 052°51'14 9.4
2019-Aug-19 20:59N 65°40' W 053°20'611.8
2019-Aug-19 20:30N 65°46' W 053°18'10 6.5
2019-Aug-19 18:58N 65°54' W 053°34'  
2019-Aug-17 14:26N 65°51' W 053°29'5 4.0
2019-Aug-17 13:09N 65°49' W 053°19'36 6.6
2019-Aug-17 07:41N 65°14' W 052°51'710.0
2019-Aug-17 06:57N 65°07' W 052°50'510.5
2019-Aug-17 06:30N 65°02' W 052°47'510.0
2019-Aug-17 06:00N 64°57' W 052°45'510.2
2019-Aug-17 05:30N 64°52' W 052°43'510.8
2019-Aug-17 05:00N 64°47' W 052°41'510.5
2019-Aug-17 04:30N 64°42' W 052°39'5 9.9
2019-Aug-17 04:00N 64°37' W 052°36'5 9.7
2019-Aug-17 03:30N 64°32' W 052°34'5 9.7
2019-Aug-17 03:00N 64°28' W 052°32'510.0
2019-Aug-17 02:31N 64°23' W 052°30'5 9.8
2019-Aug-17 02:00N 64°18' W 052°27'510.1
2019-Aug-17 01:30N 64°13' W 052°24'510.2
2019-Aug-17 01:00N 64°08' W 052°19'510.3
2019-Aug-17 00:30N 64°04' W 052°11'4 8.4
2019-Aug-17 00:00N 64°05' W 052°02'510.8
2019-Aug-16 23:30N 64°08' W 051°51'4 8.4
2019-Aug-16 23:01N 64°10' W 051°43'0 0.0
2019-Aug-16 22:31N 64°10' W 051°43'0 0.0
2019-Aug-16 22:00N 64°10' W 051°43'0 0.0
2019-Aug-16 21:30N 64°10' W 051°43'0 0.0
2019-Aug-16 21:00N 64°10' W 051°43'0 0.0
2019-Aug-16 20:30N 64°10' W 051°43'0 0.0
2019-Aug-16 20:00N 64°10' W 051°43'0 0.0
2019-Aug-16 19:30N 64°10' W 051°43'0 0.0
2019-Aug-16 19:00N 64°10' W 051°43'0 0.0
2019-Aug-16 18:30N 64°10' W 051°43'0 0.0
2019-Aug-16 18:00N 64°10' W 051°43'0 0.0
2019-Aug-16 17:30N 64°10' W 051°43'0 0.0
2019-Aug-16 17:00N 64°10' W 051°43'0 0.0
2019-Aug-16 16:30N 64°10' W 051°43'0 0.0
2019-Aug-16 16:00N 64°10' W 051°43'0 0.0
2019-Aug-16 15:30N 64°10' W 051°43'0 0.0
2019-Aug-16 15:00N 64°10' W 051°43'0 0.0
2019-Aug-16 14:30N 64°10' W 051°43'0 0.0
2019-Aug-16 14:00N 64°10' W 051°43'0 0.0
2019-Aug-16 13:30N 64°10' W 051°43'0 0.0
2019-Aug-16 13:00N 64°10' W 051°43'0 0.0
2019-Aug-16 12:30N 64°10' W 051°43'0 0.0
2019-Aug-16 12:00N 64°10' W 051°43'0 0.0
2019-Aug-16 11:30N 64°10' W 051°43'0 0.0
2019-Aug-16 11:00N 64°10' W 051°43'0 0.0
2019-Aug-16 10:30N 64°10' W 051°43'0 0.0
2019-Aug-16 10:00N 64°10' W 051°43'0 0.0
2019-Aug-16 09:30N 64°10' W 051°43'4 7.1
2019-Aug-16 09:00N 64°07' W 051°39'5 9.3
2019-Aug-16 08:30N 64°03' W 051°38'5 8.9
2019-Aug-16 07:59N 63°58' W 051°38'5 9.9
2019-Aug-16 07:30N 63°54' W 051°34'510.3
2019-Aug-16 07:00N 63°48' W 051°35'5 9.9
2019-Aug-16 06:30N 63°44' W 051°37'  

Dump ship's entire track history